createdAt,value
2023-04-28T00:02:23.276Z,15.60
2023-04-28T00:04:50.907Z,17.77
2023-04-28T00:07:18.405Z,17.97
2023-04-28T00:09:46.015Z,19.17
2023-04-28T00:12:13.139Z,18.93
2023-04-28T00:14:40.958Z,19.63
2023-04-28T00:17:09.683Z,19.23
2023-04-28T00:19:38.983Z,20.47
2023-04-28T00:22:06.880Z,21.13
2023-04-28T00:24:34.156Z,18.37
2023-04-28T00:27:01.754Z,16.93
2023-04-28T00:29:30.314Z,19.20
2023-04-28T00:31:57.594Z,18.90
2023-04-28T00:34:24.770Z,18.73
2023-04-28T00:36:52.095Z,17.80
2023-04-28T00:39:19.322Z,18.40
2023-04-28T00:41:49.194Z,16.47
2023-04-28T00:44:16.674Z,16.23
2023-04-28T00:46:45.581Z,16.00
2023-04-28T00:49:13.099Z,18.30
2023-04-28T00:51:40.395Z,18.87
2023-04-28T00:54:07.819Z,18.37
2023-04-28T00:56:35.281Z,18.23
2023-04-28T00:59:02.569Z,17.33
2023-04-28T01:01:29.929Z,18.33
2023-04-28T01:03:57.303Z,17.47
2023-04-28T01:06:24.910Z,17.97
2023-04-28T01:08:52.350Z,15.37
2023-04-28T01:11:19.837Z,14.70
2023-04-28T01:13:47.532Z,14.20
2023-04-28T01:16:14.769Z,14.67
2023-04-28T01:18:47.943Z,15.03
2023-04-28T01:21:15.476Z,14.83
2023-04-28T01:23:46.706Z,14.83
2023-04-28T01:26:13.969Z,15.40
2023-04-28T01:28:41.320Z,16.07
2023-04-28T01:31:08.512Z,14.97
2023-04-28T01:33:37.233Z,20.40
2023-04-28T01:36:04.973Z,18.70
2023-04-28T01:38:32.507Z,20.07
2023-04-28T01:40:59.972Z,23.13
2023-04-28T01:43:27.139Z,21.40
2023-04-28T01:45:54.322Z,21.23
2023-04-28T01:48:21.780Z,22.37
2023-04-28T01:50:49.291Z,24.30
2023-04-28T01:53:20.815Z,22.60
2023-04-28T01:55:48.146Z,21.70
2023-04-28T01:58:15.465Z,21.47
2023-04-28T02:00:42.584Z,19.07
2023-04-28T02:03:10.078Z,19.80
2023-04-28T02:05:38.330Z,19.23
2023-04-28T02:08:05.860Z,18.67
2023-04-28T02:10:33.423Z,19.30
2023-04-28T02:13:00.824Z,16.97
2023-04-28T02:15:28.035Z,15.03
2023-04-28T02:17:56.168Z,13.33
2023-04-28T02:20:23.777Z,14.33
2023-04-28T02:22:51.586Z,13.87
2023-04-28T02:25:19.029Z,13.87
2023-04-28T02:27:47.519Z,14.37
2023-04-28T02:30:14.817Z,14.57
2023-04-28T02:32:42.156Z,14.70
2023-04-28T02:35:09.715Z,13.23
2023-04-28T02:37:37.240Z,14.87
2023-04-28T02:40:04.751Z,17.67
2023-04-28T02:42:32.006Z,16.93
2023-04-28T02:44:59.225Z,16.70
2023-04-28T02:47:27.028Z,20.87
2023-04-28T02:49:54.374Z,19.90
2023-04-28T02:52:21.602Z,19.30
2023-04-28T02:54:49.453Z,16.03
2023-04-28T02:57:16.855Z,17.03
2023-04-28T02:59:44.422Z,18.37
2023-04-28T03:02:12.785Z,19.70
2023-04-28T03:04:40.071Z,19.50
2023-04-28T03:07:07.376Z,18.33
2023-04-28T03:09:35.081Z,18.00
2023-04-28T03:12:03.959Z,17.73
2023-04-28T03:14:31.156Z,19.67
2023-04-28T03:16:58.961Z,18.93
2023-04-28T03:19:27.602Z,19.67
2023-04-28T03:21:55.232Z,19.13
2023-04-28T03:24:23.079Z,19.67
2023-04-28T03:26:50.476Z,18.87
2023-04-28T03:29:17.770Z,18.23
2023-04-28T03:31:45.324Z,18.73
2023-04-28T03:34:12.828Z,18.80
2023-04-28T03:36:40.061Z,19.07
2023-04-28T03:39:07.305Z,18.80
2023-04-28T03:41:34.780Z,19.43
2023-04-28T03:44:02.081Z,21.07
2023-04-28T03:46:29.602Z,23.43
2023-04-28T03:48:57.424Z,22.20
2023-04-28T03:51:24.680Z,21.07
2023-04-28T03:53:52.026Z,22.10
2023-04-28T03:56:19.372Z,23.80
2023-04-28T03:58:47.076Z,22.87
2023-04-28T04:01:14.548Z,26.57
2023-04-28T04:03:42.279Z,25.00
2023-04-28T04:06:09.847Z,25.63
2023-04-28T04:08:37.256Z,24.30
2023-04-28T04:11:04.637Z,25.13
2023-04-28T04:13:32.266Z,25.10
2023-04-28T04:16:00.325Z,23.90
2023-04-28T04:18:27.706Z,24.40
2023-04-28T04:20:57.338Z,24.83
2023-04-28T04:23:25.631Z,32.00
2023-04-28T04:25:52.873Z,29.30
2023-04-28T04:28:20.102Z,32.43
2023-04-28T04:30:48.153Z,26.30
2023-04-28T04:33:15.364Z,24.90
2023-04-28T04:35:42.547Z,41.27
2023-04-28T04:38:09.854Z,70.50
2023-04-28T04:40:37.257Z,24.07
2023-04-28T04:43:04.417Z,21.83
2023-04-28T04:45:31.715Z,21.43
2023-04-28T04:47:59.498Z,20.87
2023-04-28T04:50:26.994Z,24.70
2023-04-28T04:52:56.849Z,27.17
2023-04-28T04:55:24.025Z,23.10
2023-04-28T04:57:52.632Z,27.73
2023-04-28T05:00:20.291Z,25.53
2023-04-28T05:02:48.054Z,27.37
2023-04-28T05:05:21.225Z,25.33
2023-04-28T05:07:49.580Z,25.37
2023-04-28T05:10:20.574Z,23.93
2023-04-28T05:12:49.139Z,27.90
2023-04-28T05:15:16.716Z,23.67
2023-04-28T05:17:44.007Z,22.63
2023-04-28T05:20:12.866Z,23.93
2023-04-28T05:22:40.316Z,26.10
2023-04-28T05:25:08.182Z,24.33
2023-04-28T05:27:39.932Z,23.77
2023-04-28T05:30:10.918Z,24.13
2023-04-28T05:32:39.125Z,25.23
2023-04-28T05:35:06.795Z,24.00
2023-04-28T05:37:34.162Z,24.03
2023-04-28T05:40:01.587Z,23.70
2023-04-28T05:42:28.886Z,23.60
2023-04-28T05:44:56.286Z,21.83
2023-04-28T05:47:23.722Z,21.00
2023-04-28T05:49:51.160Z,21.00
2023-04-28T05:52:18.323Z,22.03
2023-04-28T05:54:45.820Z,19.33
2023-04-28T05:57:13.308Z,18.90
2023-04-28T05:59:42.837Z,25.67
2023-04-28T06:02:11.197Z,22.90
2023-04-28T06:04:40.123Z,23.60
2023-04-28T06:07:08.444Z,18.77
2023-04-28T06:09:35.647Z,25.40
2023-04-28T06:12:04.311Z,22.67
2023-04-28T06:14:31.929Z,19.70
2023-04-28T06:16:59.141Z,18.43
2023-04-28T06:19:26.433Z,16.60
2023-04-28T06:21:54.115Z,18.00
2023-04-28T06:24:21.749Z,14.43
2023-04-28T06:26:49.188Z,19.37
2023-04-28T06:29:16.587Z,19.43
2023-04-28T06:31:44.517Z,13.37
2023-04-28T06:34:12.131Z,13.40
2023-04-28T06:36:39.543Z,16.20
2023-04-28T06:39:07.401Z,14.37
2023-04-28T06:41:34.735Z,15.77
2023-04-28T06:44:02.323Z,12.80
2023-04-28T06:46:30.425Z,14.73
2023-04-28T06:48:58.509Z,11.40
2023-04-28T06:51:27.062Z,12.73
2023-04-28T06:53:54.645Z,12.47
2023-04-28T06:56:22.527Z,12.63
2023-04-28T06:58:49.968Z,11.70
2023-04-28T07:01:17.701Z,29.67
2023-04-28T07:03:44.955Z,22.37
2023-04-28T07:06:13.128Z,21.07
2023-04-28T07:08:40.573Z,10.70
2023-04-28T07:11:07.904Z,10.93
2023-04-28T07:13:35.068Z,10.60
2023-04-28T07:16:02.632Z,11.17
2023-04-28T07:18:30.041Z,9.30
2023-04-28T07:20:57.393Z,8.93
2023-04-28T07:23:24.724Z,10.27
2023-04-28T07:25:52.242Z,15.40
2023-04-28T07:28:20.709Z,11.33
2023-04-28T07:30:48.109Z,11.00
2023-04-28T07:33:15.459Z,11.97
2023-04-28T07:35:43.048Z,11.53
2023-04-28T07:38:10.515Z,10.10
2023-04-28T07:40:38.156Z,10.77
2023-04-28T07:43:05.400Z,9.67
2023-04-28T07:45:32.762Z,8.93
2023-04-28T07:48:00.468Z,8.70
2023-04-28T07:50:27.885Z,13.33
2023-04-28T07:52:55.666Z,8.97
2023-04-28T07:55:22.995Z,8.27
2023-04-28T07:57:51.045Z,8.70
2023-04-28T08:00:20.047Z,9.23
2023-04-28T08:02:48.099Z,7.90
2023-04-28T08:05:17.362Z,7.27
2023-04-28T08:07:44.716Z,6.80
2023-04-28T08:10:15.820Z,10.90
2023-04-28T08:12:43.114Z,6.93
2023-04-28T08:15:11.150Z,7.93
2023-04-28T08:17:38.407Z,7.70
2023-04-28T08:20:07.253Z,7.00
2023-04-28T08:22:34.400Z,6.40
2023-04-28T08:25:01.529Z,7.27
2023-04-28T08:27:28.830Z,6.37
2023-04-28T08:29:56.243Z,7.33
2023-04-28T08:32:23.714Z,7.47
2023-04-28T08:34:51.127Z,5.67
2023-04-28T08:37:18.604Z,6.73
2023-04-28T08:39:46.105Z,7.10
2023-04-28T08:42:13.832Z,5.40
2023-04-28T08:44:41.429Z,6.23
2023-04-28T08:47:15.310Z,4.70
2023-04-28T08:49:44.517Z,5.00
2023-04-28T08:52:17.004Z,5.83
2023-04-28T08:54:45.202Z,5.73
2023-04-28T08:57:13.191Z,5.67
2023-04-28T08:59:42.313Z,5.63
2023-04-28T09:02:10.058Z,5.83
2023-04-28T09:04:37.890Z,4.60
2023-04-28T09:07:12.136Z,5.17
2023-04-28T09:09:41.739Z,4.83
2023-04-28T09:12:09.475Z,4.63
2023-04-28T09:14:38.976Z,3.80
2023-04-28T09:17:13.845Z,4.53
2023-04-28T09:19:44.980Z,4.13
2023-04-28T09:24:47.880Z,4.17
2023-04-28T09:27:15.869Z,4.00
2023-04-28T09:29:54.322Z,3.60
2023-04-28T09:32:23.848Z,3.73
2023-04-28T09:34:54.243Z,3.67
2023-04-28T09:37:24.016Z,3.30
2023-04-28T09:39:54.013Z,3.30
2023-04-28T09:42:41.108Z,6.10
2023-04-28T09:45:09.934Z,5.17
2023-04-28T09:47:39.409Z,3.20
2023-04-28T09:50:13.125Z,4.03
2023-04-28T09:52:42.632Z,3.70
2023-04-28T09:55:11.342Z,3.70
2023-04-28T09:57:40.226Z,3.35
2023-04-28T10:00:09.699Z,2.85
2023-04-28T10:05:12.386Z,3.55
2023-04-28T10:07:40.797Z,3.38
2023-04-28T10:10:08.613Z,3.13
2023-04-28T10:12:39.114Z,2.95
2023-04-28T10:15:09.250Z,2.75
2023-04-28T10:17:37.189Z,3.60
2023-04-28T10:20:05.528Z,2.80
2023-04-28T10:23:17.879Z,3.22
2023-04-28T10:25:50.808Z,2.72
2023-04-28T10:28:18.519Z,2.70
2023-04-28T10:31:09.518Z,2.42
2023-04-28T10:33:38.158Z,3.03
2023-04-28T10:36:06.641Z,3.13
2023-04-28T10:38:35.476Z,2.40
2023-04-28T10:41:03.659Z,2.85
2023-04-28T10:43:31.532Z,2.60
2023-04-28T10:46:02.179Z,2.40
2023-04-28T10:48:40.422Z,3.08
2023-04-28T10:51:08.185Z,2.67
2023-04-28T10:53:48.661Z,2.30
2023-04-28T10:56:17.014Z,2.00
2023-04-28T10:58:47.266Z,2.47
2023-04-28T11:01:31.088Z,2.30
2023-04-28T11:04:03.465Z,2.20
2023-04-28T11:06:36.134Z,2.15
2023-04-28T11:09:15.906Z,1.77
2023-04-28T11:12:07.276Z,2.30
2023-04-28T11:14:36.476Z,2.28
2023-04-28T11:17:18.886Z,2.28
2023-04-28T11:19:51.704Z,2.15
2023-04-28T11:22:20.916Z,2.10
2023-04-28T11:25:02.795Z,1.92
2023-04-28T11:27:34.752Z,2.38
2023-04-28T11:30:02.329Z,2.10
2023-04-28T11:32:32.055Z,2.30
2023-04-28T11:34:59.825Z,2.20
2023-04-28T11:37:27.501Z,2.20
2023-04-28T11:39:55.053Z,1.90
2023-04-28T11:42:22.387Z,2.30
2023-04-28T11:44:55.284Z,2.20
2023-04-28T11:47:35.301Z,2.03
2023-04-28T11:50:03.561Z,2.33
2023-04-28T11:52:30.872Z,2.13
2023-04-28T11:55:01.190Z,2.15
2023-04-28T11:57:29.253Z,2.55
2023-04-28T12:00:22.104Z,2.00
2023-04-28T12:02:49.904Z,1.80
2023-04-28T12:05:17.682Z,1.52
2023-04-28T12:07:46.027Z,2.05
2023-04-28T12:10:18.974Z,1.80
2023-04-28T12:12:52.630Z,1.60
2023-04-28T12:15:22.505Z,2.38
2023-04-28T12:17:51.255Z,1.97
2023-04-28T12:20:36.636Z,1.97
2023-04-28T12:23:04.218Z,2.20
2023-04-28T12:25:31.511Z,2.33
2023-04-28T12:28:03.003Z,2.20
2023-04-28T12:30:34.792Z,1.83
2023-04-28T12:33:02.507Z,1.97
2023-04-28T12:35:30.309Z,2.30
2023-04-28T12:37:59.086Z,2.10
2023-04-28T12:40:27.632Z,2.60
2023-04-28T12:42:57.119Z,1.90
2023-04-28T12:45:36.483Z,2.20
2023-04-28T12:48:06.050Z,1.83
2023-04-28T12:50:35.320Z,1.70
2023-04-28T12:53:07.533Z,2.30
2023-04-28T12:55:41.317Z,1.98
2023-04-28T12:58:29.214Z,1.80
2023-04-28T13:00:59.193Z,1.98
2023-04-28T13:03:30.413Z,2.58
2023-04-28T13:06:02.337Z,2.00
2023-04-28T13:08:34.460Z,2.47
2023-04-28T13:11:09.868Z,2.25
2023-04-28T13:13:48.563Z,2.33
2023-04-28T13:16:21.471Z,2.42
2023-04-28T13:18:53.215Z,2.25
2023-04-28T13:21:20.501Z,2.40
2023-04-28T13:23:47.972Z,2.37
2023-04-28T13:26:15.806Z,2.23
2023-04-28T13:28:43.256Z,2.40
2023-04-28T13:31:10.734Z,2.20
2023-04-28T13:33:38.024Z,2.80
2023-04-28T13:36:06.782Z,2.90
2023-04-28T13:38:34.715Z,2.10
2023-04-28T13:41:02.260Z,2.28
2023-04-28T13:43:31.288Z,2.67
2023-04-28T13:45:58.719Z,2.40
2023-04-28T13:48:28.032Z,2.60
2023-04-28T13:50:55.659Z,2.72
2023-04-28T13:53:22.986Z,2.33
2023-04-28T13:55:54.146Z,1.98
2023-04-28T13:58:23.330Z,2.72
2023-04-28T14:00:55.073Z,2.17
2023-04-28T14:03:25.116Z,2.95
2023-04-28T14:05:56.834Z,2.60
2023-04-28T14:08:27.122Z,2.08
2023-04-28T14:10:55.040Z,2.27
2023-04-28T14:13:22.320Z,2.25
2023-04-28T14:15:58.443Z,2.22
2023-04-28T14:18:27.012Z,2.30
2023-04-28T14:20:58.180Z,2.60
2023-04-28T14:23:28.953Z,2.30
2023-04-28T14:25:57.541Z,2.97
2023-04-28T14:28:24.749Z,2.40
2023-04-28T14:30:53.567Z,2.58
2023-04-28T14:33:21.069Z,2.43
2023-04-28T14:35:49.133Z,2.53
2023-04-28T14:38:16.468Z,2.23
2023-04-28T14:40:44.639Z,2.20
2023-04-28T14:43:11.884Z,2.30
2023-04-28T14:45:39.301Z,3.97
2023-04-28T14:48:08.132Z,17.63
2023-04-28T14:50:36.889Z,3.87
2023-04-28T14:53:07.300Z,2.80
2023-04-28T14:55:34.964Z,2.50
2023-04-28T14:58:03.085Z,18.37
2023-04-28T15:00:32.603Z,4.37
2023-04-28T15:02:59.853Z,2.70
2023-04-28T15:05:27.527Z,1.90
2023-04-28T15:07:55.229Z,2.60
2023-04-28T15:10:22.671Z,2.40
2023-04-28T15:12:49.967Z,3.20
2023-04-28T15:15:17.487Z,3.57
2023-04-28T15:17:45.546Z,2.70
2023-04-28T15:20:12.898Z,4.17
2023-04-28T15:22:41.383Z,2.77
2023-04-28T15:25:09.546Z,2.93
2023-04-28T15:27:36.953Z,2.90
2023-04-28T15:30:04.882Z,2.83
2023-04-28T15:32:32.671Z,2.30
2023-04-28T15:35:01.050Z,2.90
2023-04-28T15:37:52.082Z,2.50
2023-04-28T15:40:21.594Z,2.67
2023-04-28T15:42:49.635Z,3.93
2023-04-28T15:45:18.648Z,3.30
2023-04-28T15:47:47.956Z,3.10
2023-04-28T15:50:16.474Z,2.83
2023-04-28T15:52:47.473Z,3.60
2023-04-28T15:55:16.520Z,3.47
2023-04-28T15:57:44.835Z,4.43
2023-04-28T16:00:15.027Z,3.20
2023-04-28T16:02:45.072Z,3.33
2023-04-28T16:05:13.059Z,4.20
2023-04-28T16:07:41.329Z,4.40
2023-04-28T16:10:11.168Z,4.00
2023-04-28T16:12:40.476Z,4.10
2023-04-28T16:15:10.559Z,4.73
2023-04-28T16:17:38.805Z,7.20
2023-04-28T16:20:08.257Z,4.13
2023-04-28T16:22:36.932Z,4.77
2023-04-28T16:25:04.445Z,4.00
2023-04-28T16:27:32.840Z,5.90
2023-04-28T16:30:01.037Z,5.87
2023-04-28T16:32:29.130Z,3.33
2023-04-28T16:34:59.764Z,30.97
2023-04-28T16:37:27.199Z,24.63
2023-04-28T16:39:54.724Z,6.60
2023-04-28T16:42:22.823Z,3.93
2023-04-28T16:44:52.641Z,7.27
2023-04-28T16:47:20.907Z,4.93
2023-04-28T16:49:48.855Z,5.73
2023-04-28T16:52:17.006Z,4.27
2023-04-28T16:54:44.928Z,7.23
2023-04-28T16:57:12.370Z,11.07
2023-04-28T16:59:39.659Z,8.93
2023-04-28T17:02:07.213Z,9.47
2023-04-28T17:04:34.982Z,7.17
2023-04-28T17:07:06.138Z,8.23
2023-04-28T17:09:34.314Z,9.70
2023-04-28T17:12:01.542Z,7.67
2023-04-28T17:14:29.113Z,8.10
2023-04-28T17:16:56.857Z,7.23
2023-04-28T17:19:24.216Z,6.40
2023-04-28T17:21:53.277Z,8.03
2023-04-28T17:24:20.485Z,7.37
2023-04-28T17:26:48.171Z,9.63
2023-04-28T17:29:16.120Z,8.50
2023-04-28T17:31:43.507Z,12.80
2023-04-28T17:34:10.955Z,10.13
2023-04-28T17:36:38.268Z,8.57
2023-04-28T17:39:08.716Z,10.10
2023-04-28T17:41:37.419Z,10.37
2023-04-28T17:44:04.801Z,9.00
2023-04-28T17:46:32.847Z,13.77
2023-04-28T17:49:01.218Z,16.73
2023-04-28T17:51:28.920Z,15.33
2023-04-28T17:53:57.669Z,13.77
2023-04-28T17:56:25.427Z,20.03
2023-04-28T17:58:52.862Z,30.60
2023-04-28T18:01:20.102Z,30.63
2023-04-28T18:03:51.395Z,30.63
2023-04-28T18:06:22.472Z,24.40
2023-04-28T18:08:50.484Z,16.53
2023-04-28T18:11:28.391Z,12.58
2023-04-28T18:13:55.679Z,13.27
2023-04-28T18:16:23.248Z,10.90
2023-04-28T18:18:51.093Z,10.67
2023-04-28T18:21:19.308Z,15.30
2023-04-28T18:23:47.765Z,12.37
2023-04-28T18:26:15.149Z,15.07
2023-04-28T18:28:42.284Z,21.23
2023-04-28T18:31:09.677Z,23.23
2023-04-28T18:33:37.436Z,20.47
2023-04-28T18:36:14.261Z,17.47
2023-04-28T18:38:41.650Z,14.23
2023-04-28T18:41:18.949Z,14.17
2023-04-28T18:44:00.124Z,13.33
2023-04-28T18:46:29.704Z,12.73
2023-04-28T18:48:57.058Z,14.27
2023-04-28T18:51:24.702Z,12.33
2023-04-28T18:53:52.094Z,13.67
2023-04-28T18:56:21.172Z,12.67
2023-04-28T18:58:48.584Z,13.10
2023-04-28T19:01:17.360Z,15.60
2023-04-28T19:03:47.192Z,18.43
2023-04-28T19:06:15.765Z,12.83
2023-04-28T19:08:43.693Z,12.60
2023-04-28T19:11:11.324Z,13.97
2023-04-28T19:13:38.976Z,13.97
2023-04-28T19:16:06.716Z,10.90
2023-04-28T19:18:34.457Z,13.57
2023-04-28T19:21:05.656Z,14.20
2023-04-28T19:23:33.381Z,10.53
2023-04-28T19:26:01.122Z,11.77
2023-04-28T19:28:29.225Z,12.63
2023-04-28T19:30:57.749Z,12.73
2023-04-28T19:33:28.358Z,12.53
2023-04-28T19:35:55.994Z,15.00
2023-04-28T19:38:39.527Z,14.43
2023-04-28T19:41:07.570Z,11.30
2023-04-28T19:43:35.554Z,11.83
2023-04-28T19:46:03.762Z,10.10
2023-04-28T19:48:31.787Z,11.33
2023-04-28T19:51:00.268Z,15.93
2023-04-28T19:53:27.580Z,22.33
2023-04-28T19:55:56.580Z,20.53
2023-04-28T19:58:24.128Z,16.00
2023-04-28T20:00:51.411Z,14.23
2023-04-28T20:03:18.810Z,12.43
2023-04-28T20:05:46.363Z,19.97
2023-04-28T20:08:13.741Z,11.70
2023-04-28T20:10:41.131Z,13.40
2023-04-28T20:13:08.665Z,11.27
2023-04-28T20:15:35.986Z,8.70
2023-04-28T20:18:06.659Z,9.53
2023-04-28T20:20:33.898Z,8.77
2023-04-28T20:23:01.051Z,10.63
2023-04-28T20:25:28.731Z,9.53
2023-04-28T20:27:56.645Z,8.30
2023-04-28T20:30:24.203Z,14.77
2023-04-28T20:32:57.830Z,9.33
2023-04-28T20:35:25.258Z,22.77
2023-04-28T20:37:53.382Z,13.77
2023-04-28T20:40:29.893Z,9.77
2023-04-28T20:42:59.118Z,8.60
2023-04-28T20:45:39.577Z,48.87
2023-04-28T20:48:07.077Z,22.07
2023-04-28T20:50:38.426Z,12.70
2023-04-28T20:53:06.004Z,12.27
2023-04-28T20:55:33.870Z,13.50
2023-04-28T20:58:01.345Z,10.87
2023-04-28T21:00:29.089Z,8.30
2023-04-28T21:02:56.806Z,11.87
2023-04-28T21:05:24.674Z,12.90
2023-04-28T21:07:52.389Z,6.77
2023-04-28T21:10:21.328Z,7.33
2023-04-28T21:12:49.367Z,8.10
2023-04-28T21:15:16.832Z,10.53
2023-04-28T21:17:44.109Z,10.37
2023-04-28T21:20:12.019Z,10.20
2023-04-28T21:22:39.181Z,12.37
2023-04-28T21:25:07.345Z,8.67
2023-04-28T21:27:35.690Z,9.00
2023-04-28T21:30:03.130Z,8.13
2023-04-28T21:32:31.089Z,10.80
2023-04-28T21:34:58.532Z,9.37
2023-04-28T21:37:29.156Z,9.27
2023-04-28T21:39:58.273Z,9.13
2023-04-28T21:42:26.012Z,7.77
2023-04-28T21:44:53.264Z,11.70
2023-04-28T21:47:21.558Z,14.70
2023-04-28T21:49:49.162Z,8.20
2023-04-28T21:52:16.785Z,8.90
2023-04-28T21:54:44.176Z,7.63
2023-04-28T21:57:11.843Z,8.60
2023-04-28T21:59:39.506Z,8.50
2023-04-28T22:02:07.571Z,8.47
2023-04-28T22:04:35.605Z,10.27
2023-04-28T22:07:04.138Z,7.23
2023-04-28T22:09:33.484Z,15.67
2023-04-28T22:12:00.805Z,7.53
2023-04-28T22:14:40.285Z,6.53
2023-04-28T22:17:08.666Z,6.67
2023-04-28T22:19:36.246Z,6.50
2023-04-28T22:22:05.066Z,6.53
2023-04-28T22:24:42.241Z,6.40
2023-04-28T22:27:10.535Z,6.73
2023-04-28T22:29:37.920Z,6.53
2023-04-28T22:32:05.688Z,7.17
2023-04-28T22:34:33.038Z,6.30
2023-04-28T22:37:26.548Z,6.80
2023-04-28T22:40:05.353Z,6.63
2023-04-28T22:42:40.061Z,6.47
2023-04-28T22:45:08.894Z,6.23
2023-04-28T22:47:43.529Z,12.13
2023-04-28T22:50:11.642Z,10.20
2023-04-28T22:52:39.174Z,10.80
2023-04-28T22:55:06.792Z,12.50
2023-04-28T22:57:34.394Z,8.80
2023-04-28T23:00:02.383Z,7.20
2023-04-28T23:02:29.841Z,8.20
2023-04-28T23:04:57.302Z,6.80
2023-04-28T23:07:24.940Z,7.43
2023-04-28T23:09:52.533Z,7.17
2023-04-28T23:12:20.100Z,10.53
2023-04-28T23:14:47.486Z,12.27
2023-04-28T23:17:14.987Z,10.83
2023-04-28T23:19:42.630Z,10.70
2023-04-28T23:22:09.883Z,16.60
2023-04-28T23:24:38.266Z,9.80
2023-04-28T23:27:06.148Z,6.77
2023-04-28T23:29:33.746Z,6.33
2023-04-28T23:32:01.081Z,5.97
2023-04-28T23:34:28.821Z,6.20
2023-04-28T23:36:56.003Z,6.43
2023-04-28T23:39:23.213Z,5.90
2023-04-28T23:41:51.397Z,5.87
2023-04-28T23:44:18.635Z,6.00
2023-04-28T23:46:45.860Z,6.93
2023-04-28T23:49:13.956Z,6.07
2023-04-28T23:51:41.392Z,6.17
2023-04-28T23:54:09.823Z,5.43
2023-04-28T23:56:37.770Z,5.97
2023-04-28T23:59:05.877Z,5.37
